Weather History for Plainview, TX

Change the Weather History Date:

Sunday, December 16, 2012

  Actual Average Record
Temperature  
Mean Temperature 42 °F -  
Max Temperature 55 °F 49 °F 77 °F (2006)
Min Temperature 30 °F 25 °F 1 °F (1987)
Degree Days  
Heating Degree Days 22    
Moisture  
Dew Point 29 °F    
Average Humidity 58    
Maximum Humidity 93    
Minimum Humidity 33    
Precipitation  
Precipitation 0.00 in - - ()
Sea Level Pressure  
Sea Level Pressure 29.79 in    
Wind  
Wind Speed 14 mph (West)    
Max Wind Speed 30 mph    
Max Gust Speed 40 mph    
Visibility 10 miles    
Events      
Averages and records for this station are not official NWS values.
T = Trace of Precipitation, MM = Missing Value Source: NWS Daily Summary

Daily Weather History Graph

Daily Weather History Graph

Search for Another Location

Airport:

Trip Planner

Search our weather history database for the weather conditions in past years. The results will help you decide how hot, cold, wet, or windy it might be!

Date:

Astronomy

Dec. 16, 2012 Rise Set
Actual Time 7:46 AM CST 5:39 PM CST
Civil Twilight 7:18 AM CST 6:07 PM CST
Nautical Twilight 6:47 AM CST 6:38 PM CST
Astronomical Twilight 6:16 AM CST 7:09 PM CST
Moon 10:28 AM CST (12/16) 9:46 PM CST (12/16)
Length of Visible Light 10h 48m
Length of Day
9h 53m
Waxing Crescent, 16% of the Moon is Illuminated
Dec 16
Waxing Crescent
Dec 19
First Quarter
Dec 28
Full
Jan 4
Last Quarter
Jan 11
New

Hourly Weather History & Observations

Time (CST) Temp. Windchill Dew Point Humidity Pressure Visibility Wind Dir Wind Speed Gust Speed Precip Events Conditions
12:15 AM 39.2 °F 35.0 °F 32.0 °F 75% 29.82 in 10.0 mi WSW 5.8 mph - N/A   Clear
12:35 AM 35.6 °F 29.2 °F 30.2 °F 81% 29.81 in 10.0 mi SW 8.1 mph - N/A   Clear
12:55 AM 35.6 °F 27.5 °F 32.0 °F 87% 29.81 in 10.0 mi WSW 11.5 mph - N/A   Clear
1:15 AM 39.2 °F 33.0 °F 32.0 °F 75% 29.81 in 10.0 mi WSW 9.2 mph - N/A   Clear
1:35 AM 39.2 °F 33.0 °F 32.0 °F 75% 29.79 in 10.0 mi WSW 9.2 mph - N/A   Clear
1:55 AM 35.6 °F 29.2 °F 32.0 °F 87% 29.79 in 10.0 mi WSW 8.1 mph - N/A   Clear
2:15 AM 35.6 °F 29.9 °F 32.0 °F 87% 29.79 in 10.0 mi WSW 6.9 mph - N/A   Clear
2:55 AM 33.8 °F 29.6 °F 30.2 °F 87% 29.80 in 10.0 mi West 4.6 mph - N/A   Clear
3:15 AM 33.8 °F 28.6 °F 30.2 °F 87% 29.80 in 10.0 mi West 5.8 mph - N/A   Clear
3:35 AM 32.0 °F 26.4 °F 30.2 °F 93% 29.81 in 10.0 mi West 5.8 mph - N/A   Clear
3:55 AM 32.0 °F 26.4 °F 30.2 °F 93% 29.80 in 10.0 mi WSW 5.8 mph - N/A   Clear
4:15 AM 32.0 °F 25.6 °F 28.4 °F 87% 29.80 in 10.0 mi West 6.9 mph - N/A   Clear
4:35 AM 30.2 °F 22.6 °F 28.4 °F 93% 29.80 in 10.0 mi WNW 8.1 mph - N/A   Clear
4:55 AM 32.0 °F 23.6 °F 28.4 °F 87% 29.80 in 10.0 mi WNW 10.4 mph 17.3 mph N/A   Clear
5:15 AM 33.8 °F 26.4 °F 30.2 °F 87% 29.80 in 10.0 mi West 9.2 mph - N/A   Clear
5:35 AM 33.8 °F 25.8 °F 30.2 °F 87% 29.80 in 10.0 mi West 10.4 mph - N/A   Clear
5:55 AM 35.6 °F 27.5 °F 30.2 °F 81% 29.80 in 10.0 mi West 11.5 mph - N/A   Clear
6:15 AM 35.6 °F 26.2 °F 30.2 °F 81% 29.81 in 10.0 mi West 15.0 mph - N/A   Clear
6:35 AM 35.6 °F 26.6 °F 30.2 °F 81% 29.82 in 10.0 mi West 13.8 mph - N/A   Clear
7:15 AM 39.2 °F 30.8 °F 32.0 °F 75% 29.82 in 10.0 mi West 15.0 mph - N/A   Clear
7:35 AM 39.2 °F 30.5 °F 32.0 °F 75% 29.82 in 10.0 mi West 16.1 mph - N/A   Clear
7:55 AM 39.2 °F 30.8 °F 32.0 °F 75% 29.83 in 10.0 mi West 15.0 mph - N/A   Clear
8:15 AM 39.2 °F 30.5 °F 32.0 °F 75% 29.84 in 10.0 mi West 16.1 mph - N/A   Clear
8:35 AM 41.0 °F 32.8 °F 32.0 °F 70% 29.84 in 10.0 mi WSW 16.1 mph - N/A   Clear
8:55 AM 41.0 °F 32.8 °F 32.0 °F 70% 29.83 in 10.0 mi WSW 16.1 mph - N/A   Clear
9:15 AM 42.8 °F 34.0 °F 32.0 °F 66% 29.83 in 10.0 mi West 20.7 mph 26.5 mph N/A   Clear
9:35 AM 46.4 °F 38.5 °F 32.0 °F 57% 29.83 in 10.0 mi West 21.9 mph 27.6 mph N/A   Clear
9:55 AM 50.0 °F - 32.0 °F 50% 29.82 in 10.0 mi West 25.3 mph 32.2 mph N/A   Clear
10:15 AM 50.0 °F - 28.4 °F 43% 29.82 in 10.0 mi West 25.3 mph 35.7 mph N/A   Clear
10:35 AM 50.0 °F - 28.4 °F 43% 29.83 in 10.0 mi West 27.6 mph 38.0 mph N/A   Clear
10:55 AM 53.6 °F - 28.4 °F 38% 29.82 in 10.0 mi West 28.8 mph 34.5 mph N/A   Clear
11:15 AM 53.6 °F - 28.4 °F 38% 29.82 in 10.0 mi West 28.8 mph 36.8 mph N/A   Clear
11:35 AM 53.6 °F - 28.4 °F 38% 29.82 in 10.0 mi West 29.9 mph 38.0 mph N/A   Clear
11:55 AM 53.6 °F - 26.6 °F 35% 29.80 in 10.0 mi West 28.8 mph 38.0 mph N/A   Clear
12:15 PM 53.6 °F - 26.6 °F 35% 29.79 in 10.0 mi West 27.6 mph 38.0 mph N/A   Clear
12:35 PM 53.6 °F - 26.6 °F 35% 29.78 in 10.0 mi West 27.6 mph 35.7 mph N/A   Clear
12:55 PM 55.4 °F - 26.6 °F 33% 29.78 in 10.0 mi WNW 29.9 mph 40.3 mph N/A   Clear
1:15 PM 55.4 °F - 26.6 °F 33% 29.77 in 10.0 mi WNW 28.8 mph 34.5 mph N/A   Clear
1:35 PM 53.6 °F - 26.6 °F 35% 29.75 in 10.0 mi West 26.5 mph 33.4 mph N/A   Clear
1:55 PM 53.6 °F - 26.6 °F 35% 29.75 in 10.0 mi West 28.8 mph 39.1 mph N/A   Clear
2:15 PM 53.6 °F - 28.4 °F 38% 29.75 in 10.0 mi West 25.3 mph 33.4 mph N/A   Clear
2:35 PM 53.6 °F - 28.4 °F 38% 29.74 in 10.0 mi WNW 24.2 mph 31.1 mph N/A   Clear
2:55 PM 53.6 °F - 30.2 °F 41% 29.74 in 10.0 mi West 23.0 mph 29.9 mph N/A   Clear
3:15 PM 53.6 °F - 30.2 °F 41% 29.74 in 10.0 mi West 19.6 mph 27.6 mph N/A   Clear
3:35 PM 53.6 °F - 32.0 °F 44% 29.74 in 10.0 mi West 19.6 mph - N/A   Clear
3:55 PM 53.6 °F - 32.0 °F 44% 29.74 in 10.0 mi West 12.7 mph - N/A   Clear
4:15 PM 53.6 °F - 32.0 °F 44% 29.74 in 10.0 mi West 12.7 mph - N/A   Scattered Clouds
4:35 PM 53.6 °F - 33.8 °F 47% 29.74 in 10.0 mi West 24.2 mph 27.6 mph N/A   Scattered Clouds
4:55 PM 53.6 °F - 33.8 °F 47% 29.75 in 10.0 mi West 15.0 mph - N/A   Mostly Cloudy
5:15 PM 51.8 °F - 33.8 °F 50% 29.74 in 10.0 mi West 13.8 mph - N/A   Scattered Clouds
5:35 PM 50.0 °F - 32.0 °F 50% 29.75 in 10.0 mi West 15.0 mph - N/A   Clear
5:55 PM 50.0 °F - 32.0 °F 50% 29.75 in 10.0 mi West 13.8 mph - N/A   Clear
6:15 PM 50.0 °F - 32.0 °F 50% 29.75 in 10.0 mi WSW 13.8 mph 19.6 mph N/A   Clear
6:35 PM 50.0 °F - 32.0 °F 50% 29.75 in 10.0 mi West 17.3 mph - N/A   Clear
6:55 PM 50.0 °F - 32.0 °F 50% 29.76 in 10.0 mi West 13.8 mph - N/A   Clear
7:15 PM 50.0 °F - 30.2 °F 47% 29.77 in 10.0 mi West 20.7 mph 26.5 mph N/A   Clear
7:35 PM 46.4 °F 39.5 °F 28.4 °F 50% 29.78 in 10.0 mi West 17.3 mph 23.0 mph N/A   Clear
7:55 PM 46.4 °F 39.2 °F 26.6 °F 46% 29.78 in 10.0 mi West 18.4 mph - N/A   Clear
8:15 PM 44.6 °F 37.4 °F 26.6 °F 49% 29.79 in 10.0 mi West 16.1 mph - N/A   Clear
8:35 PM 44.6 °F 36.6 °F 26.6 °F 49% 29.80 in 10.0 mi West 19.6 mph 24.2 mph N/A   Clear
8:55 PM 44.6 °F 36.1 °F 26.6 °F 49% 29.80 in 10.0 mi West 21.9 mph - N/A   Clear
9:15 PM 42.8 °F 34.0 °F 26.6 °F 53% 29.81 in 10.0 mi West 20.7 mph - N/A   Clear
9:35 PM 42.8 °F 34.0 °F 26.6 °F 53% 29.82 in 10.0 mi West 20.7 mph 26.5 mph N/A   Clear
9:55 PM 42.8 °F 34.0 °F 23.0 °F 46% 29.81 in 10.0 mi West 20.7 mph 26.5 mph N/A   Clear
10:15 PM 41.0 °F 31.9 °F 23.0 °F 49% 29.82 in 10.0 mi WNW 19.6 mph 25.3 mph N/A   Clear
10:35 PM 41.0 °F 31.9 °F 23.0 °F 49% 29.83 in 10.0 mi West 19.6 mph - N/A   Clear
10:55 PM 39.2 °F 29.8 °F 21.2 °F 49% 29.83 in 10.0 mi West 18.4 mph - N/A   Clear
11:15 PM 39.2 °F 30.2 °F 23.0 °F 52% 29.84 in 10.0 mi West 17.3 mph - N/A   Clear
11:35 PM 39.2 °F 30.2 °F 21.2 °F 49% 29.84 in 10.0 mi WNW 17.3 mph - N/A   Clear
11:55 PM 39.2 °F 29.6 °F 21.2 °F 49% 29.85 in 10.0 mi WNW 19.6 mph - N/A   Clear